Time;durP1;ratioP1;P1;durP2;ratioP2;P2;SDS_P1;SDS_P2;PMS_P1;PMS_P2;Temp;Humidity;BMP_temperature;BMP_pressure;BME280_temperature;BME280_humidity;BME280_pressure;Samples;Min_cycle;Max_cycle;Signal;HPM_P1;HPM_P2
2019/10/06 00:00:01;;;;;;;1.77;1.67;;;;;;;19.63;55.25;100739.80;;;;-59
2019/10/06 00:03:01;;;;;;;2.03;1.83;;;;;;;19.63;55.24;100732.39;;;;-59
2019/10/06 00:06:01;;;;;;;2.17;1.87;;;;;;;19.62;55.23;100726.86;;;;-59
2019/10/06 00:09:02;;;;;;;1.88;1.78;;;;;;;19.61;55.26;100731.67;;;;-58
2019/10/06 00:12:01;;;;;;;2.06;1.93;;;;;;;19.61;55.26;100732.91;;;;-59
2019/10/06 00:15:01;;;;;;;1.79;1.67;;;;;;;19.63;55.19;100732.16;;;;-58
2019/10/06 00:18:01;;;;;;;1.83;1.70;;;;;;;19.61;55.27;100734.14;;;;-59
2019/10/06 00:21:01;;;;;;;1.89;1.79;;;;;;;19.58;55.27;100730.85;;;;-58
2019/10/06 00:24:01;;;;;;;1.99;1.84;;;;;;;19.59;55.26;100730.62;;;;-58
2019/10/06 00:27:01;;;;;;;1.73;1.63;;;;;;;19.60;55.24;100730.41;;;;-59
2019/10/06 00:30:01;;;;;;;1.84;1.70;;;;;;;19.59;55.25;100723.36;;;;-58
2019/10/06 00:33:01;;;;;;;1.78;1.68;;;;;;;19.60;55.21;100717.94;;;;-58
2019/10/06 00:36:01;;;;;;;1.73;1.63;;;;;;;19.59;55.21;100715.22;;;;-58
2019/10/06 00:39:01;;;;;;;1.73;1.63;;;;;;;19.58;55.21;100703.60;;;;-58
2019/10/06 00:42:01;;;;;;;1.83;1.73;;;;;;;19.58;55.19;100705.71;;;;-58
2019/10/06 00:45:01;;;;;;;1.72;1.62;;;;;;;19.57;55.21;100708.35;;;;-59
2019/10/06 00:48:01;;;;;;;1.99;1.79;;;;;;;19.57;55.21;100703.89;;;;-59
2019/10/06 00:51:01;;;;;;;1.75;1.63;;;;;;;19.57;55.21;100701.48;;;;-58
2019/10/06 00:55:01;;;;;;;1.81;1.71;;;;;;;19.56;55.19;100696.41;;;;-58
2019/10/06 00:58:01;;;;;;;1.87;1.77;;;;;;;19.57;55.21;100702.72;;;;-58
2019/10/06 01:03:01;;;;;;;1.85;1.75;;;;;;;19.54;55.23;100698.39;;;;-58
2019/10/06 01:06:01;;;;;;;1.70;1.60;;;;;;;19.54;55.27;100711.95;;;;-58
2019/10/06 01:09:01;;;;;;;1.89;1.79;;;;;;;19.54;55.23;100713.30;;;;-58
2019/10/06 01:12:01;;;;;;;2.07;1.72;;;;;;;19.54;55.22;100718.75;;;;-58
2019/10/06 01:15:01;;;;;;;1.95;1.78;;;;;;;19.54;55.20;100719.16;;;;-58
2019/10/06 01:18:01;;;;;;;2.02;1.80;;;;;;;19.54;55.17;100724.13;;;;-59
2019/10/06 01:21:01;;;;;;;1.75;1.65;;;;;;;19.55;55.14;100725.91;;;;-58
2019/10/06 01:24:01;;;;;;;1.84;1.74;;;;;;;19.55;55.14;100726.74;;;;-58
2019/10/06 01:27:01;;;;;;;1.80;1.70;;;;;;;19.54;55.16;100733.41;;;;-58
2019/10/06 01:30:01;;;;;;;1.67;1.57;;;;;;;19.55;55.14;100736.30;;;;-59
2019/10/06 01:33:01;;;;;;;1.87;1.77;;;;;;;19.53;55.15;100734.12;;;;-58
2019/10/06 01:36:01;;;;;;;1.89;1.79;;;;;;;19.51;55.17;100729.00;;;;-58
2019/10/06 01:39:01;;;;;;;1.77;1.67;;;;;;;19.52;55.18;100720.58;;;;-58
2019/10/06 01:42:01;;;;;;;1.75;1.65;;;;;;;19.51;55.20;100717.94;;;;-58
2019/10/06 01:45:01;;;;;;;1.82;1.72;;;;;;;19.52;55.15;100705.50;;;;-58
2019/10/06 01:48:01;;;;;;;1.87;1.60;;;;;;;19.51;55.15;100700.25;;;;-58
2019/10/06 01:51:01;;;;;;;1.90;1.80;;;;;;;19.51;55.14;100705.20;;;;-59
2019/10/06 01:54:01;;;;;;;1.84;1.74;;;;;;;19.50;55.17;100713.38;;;;-58
2019/10/06 01:57:01;;;;;;;1.93;1.76;;;;;;;19.50;55.17;100720.47;;;;-58
2019/10/06 02:00:01;;;;;;;1.73;1.63;;;;;;;19.50;55.16;100724.92;;;;-59
2019/10/06 02:03:01;;;;;;;1.81;1.71;;;;;;;19.50;55.16;100726.61;;;;-58
2019/10/06 02:06:01;;;;;;;1.71;1.61;;;;;;;19.51;55.13;100725.14;;;;-58
2019/10/06 02:09:04;;;;;;;1.80;1.70;;;;;;;19.51;55.11;100727.16;;;;-58
2019/10/06 02:12:01;;;;;;;2.01;1.82;;;;;;;19.51;55.10;100719.34;;;;-59
2019/10/06 02:15:01;;;;;;;1.80;1.70;;;;;;;19.48;55.10;100716.56;;;;-58
2019/10/06 02:18:01;;;;;;;1.82;1.72;;;;;;;19.48;55.12;100711.94;;;;-58
2019/10/06 02:21:01;;;;;;;1.70;1.60;;;;;;;19.49;55.12;100705.11;;;;-58
2019/10/06 02:24:01;;;;;;;1.70;1.60;;;;;;;19.47;55.11;100697.15;;;;-59
2019/10/06 02:27:01;;;;;;;1.80;1.70;;;;;;;19.48;55.09;100686.98;;;;-58
2019/10/06 02:30:01;;;;;;;2.31;1.80;;;;;;;19.48;55.11;100686.65;;;;-58
2019/10/06 02:33:01;;;;;;;1.81;1.70;;;;;;;19.48;55.11;100686.47;;;;-58
2019/10/06 02:36:01;;;;;;;1.80;1.70;;;;;;;19.47;55.11;100676.44;;;;-58
2019/10/06 02:39:01;;;;;;;1.88;1.70;;;;;;;19.48;55.07;100684.19;;;;-58
2019/10/06 02:42:01;;;;;;;1.73;1.63;;;;;;;19.48;55.03;100679.20;;;;-59
2019/10/06 02:45:01;;;;;;;1.96;1.75;;;;;;;19.48;55.03;100689.16;;;;-58
2019/10/06 02:48:01;;;;;;;1.82;1.72;;;;;;;19.47;55.05;100685.75;;;;-58
2019/10/06 02:51:01;;;;;;;1.80;1.70;;;;;;;19.46;55.07;100678.44;;;;-58
2019/10/06 02:54:01;;;;;;;1.70;1.60;;;;;;;19.45;55.09;100674.11;;;;-59
2019/10/06 02:57:01;;;;;;;1.79;1.69;;;;;;;19.45;55.06;100678.97;;;;-58
2019/10/06 03:00:01;;;;;;;1.81;1.71;;;;;;;19.45;55.07;100678.22;;;;-59
2019/10/06 03:03:01;;;;;;;1.93;1.79;;;;;;;19.46;55.06;100676.49;;;;-58
2019/10/06 03:06:01;;;;;;;1.80;1.70;;;;;;;19.47;55.00;100678.89;;;;-58
2019/10/06 03:09:01;;;;;;;1.79;1.69;;;;;;;19.47;54.99;100682.63;;;;-58
2019/10/06 03:12:01;;;;;;;1.79;1.69;;;;;;;19.45;55.05;100686.17;;;;-58
2019/10/06 03:15:01;;;;;;;1.62;1.52;;;;;;;19.45;55.03;100682.81;;;;-58
2019/10/06 03:18:01;;;;;;;1.92;1.79;;;;;;;19.45;55.02;100685.66;;;;-58
2019/10/06 03:21:01;;;;;;;1.84;1.74;;;;;;;19.45;55.02;100683.65;;;;-58
2019/10/06 03:24:01;;;;;;;1.87;1.77;;;;;;;19.45;55.00;100677.45;;;;-59
2019/10/06 03:27:01;;;;;;;1.75;1.65;;;;;;;19.44;55.03;100670.43;;;;-58
2019/10/06 03:30:01;;;;;;;1.87;1.77;;;;;;;19.44;54.99;100660.59;;;;-58
2019/10/06 03:33:01;;;;;;;2.31;1.70;;;;;;;19.43;55.03;100653.06;;;;-58
2019/10/06 03:36:01;;;;;;;1.80;1.70;;;;;;;19.43;55.02;100662.22;;;;-58
2019/10/06 03:40:01;;;;;;;1.80;1.70;;;;;;;19.44;54.98;100660.92;;;;-59
2019/10/06 03:43:01;;;;;;;1.89;1.79;;;;;;;19.44;54.99;100653.78;;;;-59
2019/10/06 03:52:27;;;;;;;1.88;1.78;;;;;;;19.42;54.97;100648.38;;;;-58
2019/10/06 03:56:27;;;;;;;1.82;1.72;;;;;;;19.41;54.95;100649.29;;;;-58
2019/10/06 03:59:27;;;;;;;1.97;1.87;;;;;;;19.43;54.97;100645.03;;;;-58
2019/10/06 04:02:27;;;;;;;1.90;1.80;;;;;;;19.41;54.97;100637.63;;;;-58
2019/10/06 04:05:27;;;;;;;1.95;1.77;;;;;;;19.40;54.98;100630.15;;;;-59
2019/10/06 04:08:27;;;;;;;1.73;1.63;;;;;;;19.40;55.01;100622.34;;;;-58
2019/10/06 04:11:27;;;;;;;1.79;1.69;;;;;;;19.40;54.98;100613.56;;;;-58
2019/10/06 04:14:41;;;;;;;1.80;1.70;;;;;;;19.40;55.01;100610.26;;;;-58
2019/10/06 04:17:41;;;;;;;1.77;1.67;;;;;;;19.40;55.02;100607.88;;;;-58
2019/10/06 04:20:29;;;;;;;1.80;1.70;;;;;;;19.41;55.00;100617.53;;;;-58
2019/10/06 04:23:27;;;;;;;1.90;1.80;;;;;;;19.40;54.99;100610.83;;;;-58
2019/10/06 04:26:27;;;;;;;1.85;1.75;;;;;;;19.40;54.99;100621.11;;;;-58
2019/10/06 04:29:27;;;;;;;1.84;1.74;;;;;;;19.41;54.97;100608.62;;;;-58
2019/10/06 04:32:27;;;;;;;1.83;1.73;;;;;;;19.39;55.01;100602.23;;;;-58
2019/10/06 04:35:27;;;;;;;1.83;1.73;;;;;;;19.40;54.96;100596.48;;;;-58
2019/10/06 04:38:27;;;;;;;1.79;1.69;;;;;;;19.38;54.97;100597.44;;;;-58
2019/10/06 04:41:27;;;;;;;1.73;1.63;;;;;;;19.40;54.96;100590.45;;;;-58
2019/10/06 04:44:27;;;;;;;1.83;1.71;;;;;;;19.39;54.92;100592.92;;;;-61
2019/10/06 04:47:27;;;;;;;3.37;3.07;;;;;;;19.29;52.56;100587.13;;;;-60
2019/10/06 04:50:27;;;;;;;5.51;3.61;;;;;;;19.22;51.66;100588.97;;;;-56
2019/10/06 04:53:27;;;;;;;3.75;3.00;;;;;;;19.24;52.32;100589.57;;;;-55
2019/10/06 04:56:27;;;;;;;2.80;2.60;;;;;;;19.24;53.19;100591.48;;;;-56
2019/10/06 04:59:27;;;;;;;3.05;2.85;;;;;;;19.25;53.32;100592.19;;;;-56
2019/10/06 05:02:27;;;;;;;2.73;2.53;;;;;;;19.24;53.52;100594.83;;;;-56
2019/10/06 05:05:27;;;;;;;3.47;2.62;;;;;;;19.26;53.60;100593.08;;;;-57
2019/10/06 05:08:27;;;;;;;2.86;2.57;;;;;;;19.27;53.63;100585.09;;;;-56
2019/10/06 05:11:27;;;;;;;2.59;2.28;;;;;;;19.29;53.76;100584.67;;;;-56
2019/10/06 05:14:27;;;;;;;2.58;2.37;;;;;;;19.29;53.77;100579.22;;;;-57
2019/10/06 05:17:27;;;;;;;2.58;2.24;;;;;;;19.28;53.85;100575.70;;;;-58
2019/10/06 05:20:27;;;;;;;2.60;2.37;;;;;;;19.29;53.87;100575.14;;;;-56
2019/10/06 05:23:27;;;;;;;2.52;2.32;;;;;;;19.29;53.94;100583.17;;;;-57
2019/10/06 05:26:27;;;;;;;2.81;2.33;;;;;;;19.30;54.02;100585.05;;;;-58
2019/10/06 05:29:27;;;;;;;2.59;2.39;;;;;;;19.29;54.04;100587.30;;;;-57
2019/10/06 05:32:27;;;;;;;2.61;2.41;;;;;;;19.30;54.09;100585.67;;;;-56
2019/10/06 05:35:27;;;;;;;2.58;2.34;;;;;;;19.30;54.11;100582.05;;;;-57
2019/10/06 05:38:27;;;;;;;3.02;2.29;;;;;;;19.32;54.13;100578.23;;;;-56
2019/10/06 05:41:27;;;;;;;2.30;2.12;;;;;;;19.31;54.16;100581.92;;;;-56
2019/10/06 05:44:48;;;;;;;2.27;2.07;;;;;;;19.31;54.17;100582.42;;;;-56
2019/10/06 05:47:27;;;;;;;2.23;2.06;;;;;;;19.31;54.20;100577.58;;;;-56
2019/10/06 05:50:39;;;;;;;2.69;2.10;;;;;;;19.31;54.18;100575.63;;;;-56
2019/10/06 05:53:27;;;;;;;2.65;2.38;;;;;;;19.31;54.24;100573.66;;;;-56
2019/10/06 05:56:27;;;;;;;2.30;2.10;;;;;;;19.31;54.21;100569.37;;;;-56
2019/10/06 05:59:27;;;;;;;2.99;2.18;;;;;;;19.31;54.27;100567.36;;;;-57
2019/10/06 06:02:27;;;;;;;2.35;2.15;;;;;;;19.31;54.30;100569.61;;;;-56
2019/10/06 06:05:27;;;;;;;2.40;2.20;;;;;;;19.31;54.33;100567.02;;;;-56
2019/10/06 06:08:27;;;;;;;2.28;2.08;;;;;;;19.32;54.25;100564.05;;;;-57
2019/10/06 06:11:27;;;;;;;2.27;2.07;;;;;;;19.31;54.31;100558.25;;;;-57
2019/10/06 06:14:27;;;;;;;2.47;2.27;;;;;;;19.31;54.31;100561.00;;;;-56
2019/10/06 06:17:27;;;;;;;2.39;2.16;;;;;;;19.32;54.33;100558.19;;;;-56
2019/10/06 06:20:27;;;;;;;2.27;2.07;;;;;;;19.31;54.32;100554.36;;;;-56
2019/10/06 06:23:27;;;;;;;2.40;2.20;;;;;;;19.31;54.35;100559.43;;;;-57
2019/10/06 06:26:27;;;;;;;2.17;2.05;;;;;;;19.32;54.34;100559.09;;;;-56
2019/10/06 06:29:27;;;;;;;2.97;2.18;;;;;;;19.31;54.35;100560.33;;;;-56
2019/10/06 06:32:27;;;;;;;2.38;2.18;;;;;;;19.31;54.34;100559.05;;;;-56
2019/10/06 06:35:27;;;;;;;2.41;2.21;;;;;;;19.31;54.39;100559.82;;;;-56
2019/10/06 06:38:27;;;;;;;2.38;2.18;;;;;;;19.32;54.38;100554.34;;;;-56
2019/10/06 06:41:26;;;;;;;2.39;2.23;;;;;;;19.31;54.41;100550.89;;;;-56
2019/10/06 06:44:26;;;;;;;2.41;2.17;;;;;;;19.31;54.39;100554.20;;;;-56
2019/10/06 06:47:26;;;;;;;2.44;2.24;;;;;;;19.32;54.36;100553.84;;;;-56
2019/10/06 06:50:27;;;;;;;2.30;2.10;;;;;;;19.32;54.34;100548.98;;;;-56
2019/10/06 06:53:26;;;;;;;2.17;2.02;;;;;;;19.32;54.38;100548.16;;;;-57
2019/10/06 06:56:26;;;;;;;2.22;2.02;;;;;;;19.33;54.40;100546.59;;;;-57
2019/10/06 06:59:26;;;;;;;2.26;2.10;;;;;;;19.32;54.37;100544.87;;;;-56
2019/10/06 07:02:26;;;;;;;2.13;2.00;;;;;;;19.32;54.45;100543.52;;;;-56
2019/10/06 07:05:26;;;;;;;2.32;2.12;;;;;;;19.32;54.41;100543.06;;;;-57
2019/10/06 07:08:26;;;;;;;2.45;2.25;;;;;;;19.31;54.44;100548.87;;;;-56
2019/10/06 07:11:26;;;;;;;2.25;2.10;;;;;;;19.32;54.39;100552.78;;;;-57
2019/10/06 07:14:26;;;;;;;2.36;2.16;;;;;;;19.33;54.42;100548.86;;;;-57
2019/10/06 07:17:26;;;;;;;2.19;2.00;;;;;;;19.32;54.44;100548.38;;;;-56
2019/10/06 07:20:26;;;;;;;2.39;2.19;;;;;;;19.33;54.39;100550.20;;;;-56
2019/10/06 07:23:26;;;;;;;2.28;2.09;;;;;;;19.32;54.42;100548.09;;;;-57
2019/10/06 07:26:26;;;;;;;2.21;2.01;;;;;;;19.33;54.42;100548.87;;;;-56
2019/10/06 07:29:26;;;;;;;2.15;2.00;;;;;;;19.32;54.45;100544.47;;;;-57
2019/10/06 07:32:26;;;;;;;2.30;2.10;;;;;;;19.31;54.50;100545.53;;;;-56
2019/10/06 07:35:26;;;;;;;2.33;2.13;;;;;;;19.32;54.50;100545.70;;;;-56
2019/10/06 07:38:26;;;;;;;3.11;2.23;;;;;;;19.32;54.39;100544.07;;;;-56
2019/10/06 07:41:26;;;;;;;2.37;2.17;;;;;;;19.32;54.40;100545.74;;;;-47
2019/10/06 07:44:27;;;;;;;2.30;2.10;;;;;;;19.33;54.39;100548.59;;;;-48
2019/10/06 07:47:26;;;;;;;2.40;2.20;;;;;;;19.33;54.40;100549.44;;;;-48
2019/10/06 07:50:26;;;;;;;2.35;2.15;;;;;;;19.33;54.39;100551.31;;;;-48
2019/10/06 07:53:26;;;;;;;2.39;2.19;;;;;;;19.33;54.40;100544.28;;;;-48
2019/10/06 07:56:26;;;;;;;2.17;2.04;;;;;;;19.31;54.37;100542.85;;;;-48
2019/10/06 07:59:26;;;;;;;2.31;2.11;;;;;;;19.33;54.42;100534.97;;;;-48
2019/10/06 08:02:26;;;;;;;2.28;2.09;;;;;;;19.33;54.45;100523.14;;;;-48
2019/10/06 08:05:26;;;;;;;2.47;2.27;;;;;;;19.32;54.48;100521.92;;;;-48
2019/10/06 08:08:26;;;;;;;2.30;2.10;;;;;;;19.32;54.42;100514.09;;;;-48
2019/10/06 08:11:26;;;;;;;2.23;2.09;;;;;;;19.33;54.44;100512.86;;;;-48
2019/10/06 08:14:26;;;;;;;2.19;2.05;;;;;;;19.33;54.44;100511.96;;;;-48
2019/10/06 08:17:26;;;;;;;2.23;2.03;;;;;;;19.33;54.47;100511.42;;;;-48
2019/10/06 08:20:26;;;;;;;2.32;2.12;;;;;;;19.32;54.47;100512.14;;;;-47
2019/10/06 08:23:26;;;;;;;2.37;2.14;;;;;;;19.32;54.45;100514.27;;;;-48
2019/10/06 08:26:26;;;;;;;2.30;2.10;;;;;;;19.31;54.48;100506.64;;;;-48
2019/10/06 08:29:26;;;;;;;2.72;2.11;;;;;;;19.31;54.49;100500.72;;;;-48
2019/10/06 08:32:26;;;;;;;2.18;2.06;;;;;;;19.32;54.49;100497.73;;;;-47
2019/10/06 08:35:26;;;;;;;2.40;2.20;;;;;;;19.32;54.46;100489.38;;;;-56
2019/10/06 08:38:26;;;;;;;2.20;2.00;;;;;;;19.32;54.49;100488.98;;;;-57
2019/10/06 08:41:26;;;;;;;2.33;2.07;;;;;;;19.35;54.54;100485.89;;;;-54
2019/10/06 08:44:26;;;;;;;2.39;2.10;;;;;;;19.35;54.59;100488.00;;;;-48
2019/10/06 08:47:26;;;;;;;2.43;2.23;;;;;;;19.35;54.70;100485.48;;;;-49
2019/10/06 08:50:27;;;;;;;4.28;2.33;;;;;;;19.37;54.64;100489.10;;;;-61
2019/10/06 08:53:26;;;;;;;3.90;2.39;;;;;;;19.39;54.73;100490.99;;;;-56
2019/10/06 08:56:26;;;;;;;4.67;2.39;;;;;;;19.42;54.80;100492.91;;;;-58
2019/10/06 08:59:26;;;;;;;3.31;2.21;;;;;;;19.41;54.88;100491.95;;;;-52
2019/10/06 09:02:26;;;;;;;4.19;2.33;;;;;;;19.41;54.96;100492.09;;;;-50
2019/10/06 09:05:26;;;;;;;5.95;2.27;;;;;;;19.41;55.04;100488.37;;;;-51
2019/10/06 09:08:26;;;;;;;4.49;2.30;;;;;;;19.43;55.07;100482.34;;;;-53
2019/10/06 09:11:27;;;;;;;5.08;2.27;;;;;;;19.43;55.09;100484.64;;;;-53
2019/10/06 09:14:26;;;;;;;3.75;2.25;;;;;;;19.45;55.07;100485.23;;;;-55
2019/10/06 09:17:27;;;;;;;3.08;2.47;;;;;;;19.44;55.02;100485.63;;;;-56
2019/10/06 09:20:27;;;;;;;4.76;2.30;;;;;;;19.48;55.05;100484.23;;;;-46
2019/10/06 09:23:26;;;;;;;4.41;2.28;;;;;;;19.46;54.97;100480.70;;;;-59
2019/10/06 09:26:26;;;;;;;2.83;2.25;;;;;;;19.46;55.04;100476.78;;;;-60
2019/10/06 09:29:26;;;;;;;3.21;2.30;;;;;;;19.47;55.07;100469.35;;;;-51
2019/10/06 09:32:26;;;;;;;3.84;2.33;;;;;;;19.46;55.08;100470.15;;;;-51
2019/10/06 09:35:26;;;;;;;3.61;2.31;;;;;;;19.47;54.94;100459.53;;;;-52
2019/10/06 09:38:26;;;;;;;4.51;2.40;;;;;;;19.45;54.98;100454.69;;;;-51
2019/10/06 09:41:26;;;;;;;2.59;2.29;;;;;;;19.45;54.94;100450.27;;;;-51
2019/10/06 09:44:26;;;;;;;3.50;2.50;;;;;;;19.45;54.91;100450.84;;;;-51
2019/10/06 09:47:26;;;;;;;3.62;2.43;;;;;;;19.44;54.90;100447.88;;;;-51
2019/10/06 09:50:26;;;;;;;3.65;2.31;;;;;;;19.44;54.94;100443.15;;;;-51
2019/10/06 09:53:26;;;;;;;3.85;2.40;;;;;;;19.43;54.90;100432.55;;;;-51
2019/10/06 09:56:26;;;;;;;2.83;2.15;;;;;;;19.46;54.82;100430.63;;;;-48
2019/10/06 09:59:26;;;;;;;3.97;2.20;;;;;;;19.46;54.86;100428.61;;;;-48
2019/10/06 10:02:26;;;;;;;2.80;2.50;;;;;;;19.46;54.96;100422.74;;;;-51
2019/10/06 10:05:26;;;;;;;4.68;2.31;;;;;;;19.46;55.00;100408.84;;;;-51
2019/10/06 10:08:26;;;;;;;3.83;2.32;;;;;;;19.50;54.99;100407.34;;;;-49
2019/10/06 10:11:26;;;;;;;4.63;2.45;;;;;;;19.51;55.01;100404.81;;;;-56
2019/10/06 10:14:26;;;;;;;4.10;2.54;;;;;;;19.50;55.10;100405.00;;;;-49
2019/10/06 10:17:26;;;;;;;2.89;2.29;;;;;;;19.51;55.13;100402.25;;;;-56
2019/10/06 10:20:26;;;;;;;9.73;2.71;;;;;;;19.54;55.14;100389.26;;;;-58
2019/10/06 10:23:26;;;;;;;4.35;2.34;;;;;;;19.54;55.14;100385.57;;;;-55
2019/10/06 10:26:26;;;;;;;5.13;2.30;;;;;;;19.53;55.17;100386.20;;;;-52
2019/10/06 10:29:26;;;;;;;3.03;2.33;;;;;;;19.54;55.19;100386.98;;;;-52
2019/10/06 10:32:26;;;;;;;3.65;2.25;;;;;;;19.54;55.31;100390.33;;;;-51
2019/10/06 10:35:26;;;;;;;3.40;2.50;;;;;;;19.54;55.32;100384.47;;;;-45
2019/10/06 10:38:26;;;;;;;4.59;2.26;;;;;;;19.54;55.30;100377.87;;;;-53
2019/10/06 10:41:26;;;;;;;3.99;2.36;;;;;;;19.55;55.34;100379.81;;;;-53
2019/10/06 10:44:26;;;;;;;2.63;2.31;;;;;;;19.55;55.30;100369.10;;;;-53
2019/10/06 10:47:26;;;;;;;3.05;2.22;;;;;;;19.55;55.34;100366.08;;;;-53
2019/10/06 10:50:26;;;;;;;4.76;2.31;;;;;;;19.55;55.36;100363.23;;;;-48
2019/10/06 10:53:26;;;;;;;4.59;2.20;;;;;;;19.57;55.33;100363.42;;;;-51
2019/10/06 10:56:26;;;;;;;3.13;2.41;;;;;;;19.56;55.28;100362.04;;;;-51
2019/10/06 10:59:26;;;;;;;3.56;2.29;;;;;;;19.55;55.22;100357.48;;;;-52
2019/10/06 11:02:26;;;;;;;4.09;2.19;;;;;;;19.55;55.19;100356.87;;;;-52
2019/10/06 11:05:26;;;;;;;3.43;2.27;;;;;;;19.54;55.15;100352.07;;;;-50
2019/10/06 11:11:26;;;;;;;2.39;2.19;;;;;;;19.53;55.16;100349.58;;;;-53
2019/10/06 11:14:26;;;;;;;3.33;2.42;;;;;;;19.52;55.14;100345.35;;;;-56
2019/10/06 11:17:26;;;;;;;2.98;2.31;;;;;;;19.51;55.12;100340.55;;;;-57
2019/10/06 11:20:26;;;;;;;2.63;2.18;;;;;;;19.52;55.13;100342.50;;;;-56
2019/10/06 11:23:26;;;;;;;2.77;2.30;;;;;;;19.51;55.12;100333.41;;;;-53
2019/10/06 11:29:26;;;;;;;2.39;2.19;;;;;;;19.49;55.06;100327.00;;;;-53
2019/10/06 11:32:26;;;;;;;2.93;2.17;;;;;;;19.50;55.04;100319.23;;;;-54
2019/10/06 11:35:26;;;;;;;2.71;2.29;;;;;;;19.49;55.05;100314.17;;;;-53
2019/10/06 11:38:26;;;;;;;2.79;2.12;;;;;;;19.49;55.02;100312.56;;;;-62
2019/10/06 11:41:26;;;;;;;2.24;2.03;;;;;;;19.49;55.02;100307.87;;;;-62
2019/10/06 11:44:26;;;;;;;2.31;2.11;;;;;;;19.48;55.03;100310.55;;;;-61
2019/10/06 11:47:27;;;;;;;2.30;2.10;;;;;;;19.48;54.99;100304.09;;;;-53
2019/10/06 11:50:26;;;;;;;2.55;2.17;;;;;;;19.48;55.03;100297.38;;;;-53
2019/10/06 11:53:26;;;;;;;2.33;2.11;;;;;;;19.48;55.02;100293.42;;;;-52
2019/10/06 11:56:26;;;;;;;2.31;2.11;;;;;;;19.47;55.02;100288.30;;;;-54
2019/10/06 11:59:26;;;;;;;2.97;1.91;;;;;;;19.47;55.00;100283.34;;;;-52
2019/10/06 12:02:26;;;;;;;2.89;2.25;;;;;;;19.47;55.00;100274.23;;;;-53
2019/10/06 12:05:26;;;;;;;3.29;2.20;;;;;;;19.47;55.00;100270.48;;;;-51
2019/10/06 12:08:26;;;;;;;2.31;2.11;;;;;;;19.47;54.93;100273.89;;;;-52
2019/10/06 12:11:26;;;;;;;2.43;2.22;;;;;;;19.46;54.96;100269.84;;;;-51
2019/10/06 12:14:26;;;;;;;2.39;2.19;;;;;;;19.46;54.93;100274.36;;;;-52
2019/10/06 12:17:26;;;;;;;2.69;2.23;;;;;;;19.47;54.96;100262.17;;;;-57
2019/10/06 12:20:26;;;;;;;2.19;1.99;;;;;;;19.46;54.90;100254.26;;;;-56
2019/10/06 12:23:26;;;;;;;2.58;2.08;;;;;;;19.45;54.93;100248.19;;;;-57
2019/10/06 12:26:26;;;;;;;3.37;2.29;;;;;;;19.46;54.98;100243.70;;;;-57
2019/10/06 12:29:26;;;;;;;2.52;2.32;;;;;;;19.45;54.96;100234.69;;;;-57
2019/10/06 12:32:26;;;;;;;2.41;2.19;;;;;;;19.45;54.96;100232.11;;;;-57
2019/10/06 12:35:26;;;;;;;2.37;2.00;;;;;;;19.45;54.96;100229.70;;;;-56
2019/10/06 12:38:26;;;;;;;2.30;2.10;;;;;;;19.46;54.95;100222.44;;;;-57
2019/10/06 12:41:26;;;;;;;2.22;2.00;;;;;;;19.45;54.92;100216.36;;;;-62
2019/10/06 12:44:26;;;;;;;2.31;2.11;;;;;;;19.44;54.95;100205.77;;;;-61
2019/10/06 12:47:26;;;;;;;2.24;2.04;;;;;;;19.43;55.00;100202.82;;;;-62
2019/10/06 12:50:26;;;;;;;2.35;2.13;;;;;;;19.44;55.01;100199.92;;;;-61
2019/10/06 12:53:26;;;;;;;2.27;2.06;;;;;;;19.44;54.98;100194.48;;;;-61
2019/10/06 12:56:26;;;;;;;2.78;2.38;;;;;;;19.44;54.99;100192.64;;;;-61
2019/10/06 12:59:26;;;;;;;3.07;2.27;;;;;;;19.42;54.96;100187.14;;;;-62
2019/10/06 13:02:26;;;;;;;3.04;2.26;;;;;;;19.47;54.92;100189.55;;;;-61
2019/10/06 13:05:26;;;;;;;2.48;1.99;;;;;;;19.47;55.00;100185.70;;;;-59
2019/10/06 13:08:26;;;;;;;2.47;2.27;;;;;;;19.48;55.07;100180.98;;;;-59
2019/10/06 13:11:26;;;;;;;2.20;2.00;;;;;;;19.48;55.16;100180.65;;;;-63
2019/10/06 13:14:26;;;;;;;2.30;2.10;;;;;;;19.49;55.19;100181.86;;;;-60
2019/10/06 13:17:26;;;;;;;2.39;2.19;;;;;;;19.49;55.27;100173.48;;;;-51
2019/10/06 13:20:26;;;;;;;2.19;1.99;;;;;;;19.50;55.27;100170.01;;;;-49
2019/10/06 13:23:26;;;;;;;2.17;1.96;;;;;;;19.54;55.21;100165.81;;;;-52
2019/10/06 13:26:26;;;;;;;2.29;2.07;;;;;;;19.54;55.25;100166.37;;;;-48
2019/10/06 13:29:26;;;;;;;3.42;2.15;;;;;;;19.54;55.34;100159.01;;;;-50
2019/10/06 13:32:26;;;;;;;2.35;2.12;;;;;;;19.54;55.35;100153.14;;;;-47
2019/10/06 13:35:26;;;;;;;4.45;2.11;;;;;;;19.58;55.32;100147.77;;;;-61
2019/10/06 13:38:26;;;;;;;2.30;2.00;;;;;;;19.62;55.35;100146.76;;;;-58
2019/10/06 13:41:26;;;;;;;5.33;2.38;;;;;;;19.64;55.30;100140.97;;;;-55
2019/10/06 13:44:26;;;;;;;3.28;2.97;;;;;;;19.55;54.46;100134.09;;;;-58
2019/10/06 13:47:26;;;;;;;4.28;2.51;;;;;;;19.57;54.87;100127.64;;;;-51
2019/10/06 13:50:26;;;;;;;4.19;2.54;;;;;;;19.55;55.09;100128.67;;;;-52
2019/10/06 13:53:26;;;;;;;4.55;2.29;;;;;;;19.57;55.24;100122.28;;;;-54
2019/10/06 13:56:26;;;;;;;4.07;2.19;;;;;;;19.57;55.09;100121.38;;;;-50
2019/10/06 13:59:26;;;;;;;3.15;2.17;;;;;;;19.56;55.09;100117.66;;;;-52
2019/10/06 14:02:26;;;;;;;2.99;2.17;;;;;;;19.56;55.10;100115.14;;;;-54
2019/10/06 14:05:26;;;;;;;2.74;2.23;;;;;;;19.56;55.07;100111.78;;;;-53
2019/10/06 14:08:26;;;;;;;3.12;2.33;;;;;;;19.54;55.06;100103.00;;;;-53
2019/10/06 14:11:26;;;;;;;2.45;2.24;;;;;;;19.55;55.02;100100.86;;;;-52
2019/10/06 14:14:26;;;;;;;2.97;2.14;;;;;;;19.54;55.06;100097.14;;;;-52
2019/10/06 14:17:26;;;;;;;3.53;2.09;;;;;;;19.54;55.03;100085.98;;;;-52
2019/10/06 14:20:26;;;;;;;2.77;2.11;;;;;;;19.53;55.08;100085.04;;;;-53
2019/10/06 14:23:26;;;;;;;2.91;2.13;;;;;;;19.53;55.06;100082.09;;;;-52
2019/10/06 14:26:26;;;;;;;2.72;2.20;;;;;;;19.53;55.03;100071.64;;;;-52
2019/10/06 14:29:26;;;;;;;3.71;2.09;;;;;;;19.52;55.04;100067.98;;;;-52
2019/10/06 14:32:26;;;;;;;2.97;2.11;;;;;;;19.52;55.02;100069.09;;;;-52
2019/10/06 14:35:26;;;;;;;2.17;1.97;;;;;;;19.52;55.01;100066.81;;;;-52
2019/10/06 14:38:26;;;;;;;3.23;2.07;;;;;;;19.52;55.00;100063.23;;;;-52
2019/10/06 14:41:26;;;;;;;2.53;2.09;;;;;;;19.50;55.06;100062.42;;;;-52
2019/10/06 14:44:26;;;;;;;2.27;2.07;;;;;;;19.49;55.06;100057.92;;;;-52
2019/10/06 14:47:26;;;;;;;3.63;2.15;;;;;;;19.49;55.03;100052.91;;;;-51
2019/10/06 14:50:26;;;;;;;2.41;2.09;;;;;;;19.50;55.11;100054.67;;;;-51
2019/10/06 14:53:26;;;;;;;2.19;1.99;;;;;;;19.50;55.04;100053.94;;;;-50
2019/10/06 14:56:26;;;;;;;2.23;2.03;;;;;;;19.49;55.03;100047.14;;;;-51
2019/10/06 14:59:26;;;;;;;2.07;1.87;;;;;;;19.50;55.04;100046.08;;;;-52
2019/10/06 15:02:26;;;;;;;3.49;2.09;;;;;;;19.50;55.00;100045.40;;;;-52
2019/10/06 15:05:26;;;;;;;2.37;2.02;;;;;;;19.50;55.04;100044.06;;;;-53
2019/10/06 15:08:26;;;;;;;2.09;1.89;;;;;;;19.50;55.08;100043.22;;;;-52
2019/10/06 15:11:26;;;;;;;2.20;1.90;;;;;;;19.50;55.07;100036.92;;;;-53
2019/10/06 15:14:26;;;;;;;2.20;2.00;;;;;;;19.48;55.03;100036.62;;;;-53
2019/10/06 15:17:27;;;;;;;2.06;1.90;;;;;;;19.49;55.04;100034.98;;;;-53
2019/10/06 15:20:26;;;;;;;2.13;1.97;;;;;;;19.49;55.03;100029.95;;;;-52
2019/10/06 15:23:26;;;;;;;2.87;2.07;;;;;;;19.48;55.05;100028.14;;;;-53
2019/10/06 15:26:26;;;;;;;2.10;1.90;;;;;;;19.48;55.07;100025.12;;;;-52
2019/10/06 15:29:26;;;;;;;2.31;1.96;;;;;;;19.47;55.05;100018.22;;;;-53
2019/10/06 15:32:26;;;;;;;2.19;1.99;;;;;;;19.51;55.06;100018.88;;;;-48
2019/10/06 15:35:26;;;;;;;2.53;2.17;;;;;;;19.52;55.06;100009.53;;;;-49
2019/10/06 15:38:26;;;;;;;4.19;2.21;;;;;;;19.52;55.14;100001.77;;;;-55
2019/10/06 15:41:26;;;;;;;2.61;2.39;;;;;;;19.52;55.21;99999.15;;;;-54
2019/10/06 15:44:26;;;;;;;3.74;2.71;;;;;;;19.52;55.27;99997.41;;;;-49
2019/10/06 15:47:26;;;;;;;3.83;2.81;;;;;;;19.53;55.28;99993.27;;;;-57
2019/10/06 15:50:26;;;;;;;5.51;3.10;;;;;;;19.53;55.29;99992.59;;;;-54
2019/10/06 15:53:26;;;;;;;4.12;3.11;;;;;;;19.54;55.34;99992.19;;;;-49
2019/10/06 15:56:26;;;;;;;4.99;3.43;;;;;;;19.54;55.38;99990.17;;;;-51
2019/10/06 15:59:26;;;;;;;5.95;3.30;;;;;;;19.54;55.41;99982.81;;;;-49
2019/10/06 16:02:26;;;;;;;4.34;3.60;;;;;;;19.54;55.43;99982.74;;;;-49
2019/10/06 16:05:26;;;;;;;4.13;3.65;;;;;;;19.55;55.46;99983.34;;;;-51
2019/10/06 16:08:26;;;;;;;5.27;4.01;;;;;;;19.56;55.42;99982.05;;;;-56
2019/10/06 16:11:26;;;;;;;4.31;3.83;;;;;;;19.57;55.39;99982.19;;;;-50
2019/10/06 16:14:26;;;;;;;5.40;4.02;;;;;;;19.57;55.32;99977.66;;;;-56
2019/10/06 16:17:26;;;;;;;5.21;3.83;;;;;;;19.57;55.33;99982.08;;;;-51
2019/10/06 16:20:26;;;;;;;4.57;3.86;;;;;;;19.58;55.35;99980.05;;;;-48
2019/10/06 16:23:26;;;;;;;5.15;4.03;;;;;;;19.58;55.42;99972.84;;;;-49
2019/10/06 16:26:26;;;;;;;4.90;3.53;;;;;;;19.59;55.48;99968.25;;;;-51
2019/10/06 16:29:26;;;;;;;4.13;3.77;;;;;;;19.58;55.50;99964.30;;;;-49
2019/10/06 16:32:26;;;;;;;5.47;3.97;;;;;;;19.58;55.57;99955.66;;;;-50
2019/10/06 16:35:26;;;;;;;5.03;3.80;;;;;;;19.59;55.51;99951.67;;;;-54
2019/10/06 16:38:26;;;;;;;4.22;3.68;;;;;;;19.58;55.56;99949.13;;;;-51
2019/10/06 16:41:26;;;;;;;6.79;3.61;;;;;;;19.60;55.58;99946.02;;;;-57
2019/10/06 16:44:26;;;;;;;7.35;3.44;;;;;;;19.63;55.53;99942.77;;;;-56
2019/10/06 16:47:26;;;;;;;5.97;3.83;;;;;;;19.64;55.61;99937.11;;;;-53
2019/10/06 16:50:26;;;;;;;4.29;3.44;;;;;;;19.64;55.71;99931.02;;;;-51
2019/10/06 16:53:26;;;;;;;5.37;3.45;;;;;;;19.66;55.70;99925.63;;;;-51
2019/10/06 16:56:26;;;;;;;4.68;3.54;;;;;;;19.66;55.80;99921.87;;;;-50
2019/10/06 16:59:26;;;;;;;4.72;3.45;;;;;;;19.67;55.83;99922.98;;;;-50